sensor_id;sensor_type;location;lat;lon;timestamp;P1;durP1;ratioP1;P2;durP2;ratioP2
14611;SDS011;7392;52.078;11.650;2023-02-12T00:00:49;6.10;;;5.60;;
14611;SDS011;7392;52.078;11.650;2023-02-12T00:03:17;6.40;;;5.80;;
14611;SDS011;7392;52.078;11.650;2023-02-12T00:05:45;8.70;;;6.53;;
14611;SDS011;7392;52.078;11.650;2023-02-12T00:08:12;7.20;;;6.50;;
14611;SDS011;7392;52.078;11.650;2023-02-12T00:10:41;7.50;;;6.80;;
14611;SDS011;7392;52.078;11.650;2023-02-12T00:13:10;7.17;;;6.07;;
14611;SDS011;7392;52.078;11.650;2023-02-12T00:15:40;6.03;;;5.43;;
14611;SDS011;7392;52.078;11.650;2023-02-12T00:18:09;5.90;;;5.40;;
14611;SDS011;7392;52.078;11.650;2023-02-12T00:20:37;6.07;;;5.57;;
14611;SDS011;7392;52.078;11.650;2023-02-12T00:23:05;6.30;;;5.70;;
14611;SDS011;7392;52.078;11.650;2023-02-12T00:25:33;6.50;;;5.47;;
14611;SDS011;7392;52.078;11.650;2023-02-12T00:28:01;6.40;;;5.80;;
14611;SDS011;7392;52.078;11.650;2023-02-12T00:30:29;6.50;;;5.90;;
14611;SDS011;7392;52.078;11.650;2023-02-12T00:32:59;6.53;;;5.83;;
14611;SDS011;7392;52.078;11.650;2023-02-12T00:35:26;6.43;;;5.83;;
14611;SDS011;7392;52.078;11.650;2023-02-12T00:37:54;7.40;;;6.70;;
14611;SDS011;7392;52.078;11.650;2023-02-12T00:40:22;6.37;;;5.77;;
14611;SDS011;7392;52.078;11.650;2023-02-12T00:42:49;5.67;;;5.17;;
14611;SDS011;7392;52.078;11.650;2023-02-12T00:45:17;5.43;;;4.93;;
14611;SDS011;7392;52.078;11.650;2023-02-12T00:47:45;4.70;;;4.30;;
14611;SDS011;7392;52.078;11.650;2023-02-12T00:50:15;4.87;;;4.40;;
14611;SDS011;7392;52.078;11.650;2023-02-12T00:52:43;4.50;;;4.10;;
14611;SDS011;7392;52.078;11.650;2023-02-12T00:55:10;6.50;;;5.60;;
14611;SDS011;7392;52.078;11.650;2023-02-12T00:57:38;6.03;;;5.43;;
14611;SDS011;7392;52.078;11.650;2023-02-12T01:00:06;5.97;;;5.30;;
14611;SDS011;7392;52.078;11.650;2023-02-12T01:02:34;6.10;;;5.60;;
14611;SDS011;7392;52.078;11.650;2023-02-12T01:05:04;5.60;;;5.10;;
14611;SDS011;7392;52.078;11.650;2023-02-12T01:07:33;5.60;;;5.10;;
14611;SDS011;7392;52.078;11.650;2023-02-12T01:10:01;6.30;;;5.57;;
14611;SDS011;7392;52.078;11.650;2023-02-12T01:12:28;6.13;;;5.63;;
14611;SDS011;7392;52.078;11.650;2023-02-12T01:14:56;5.93;;;5.40;;
14611;SDS011;7392;52.078;11.650;2023-02-12T01:17:24;5.23;;;4.80;;
14611;SDS011;7392;52.078;11.650;2023-02-12T01:19:55;5.27;;;4.87;;
14611;SDS011;7392;52.078;11.650;2023-02-12T01:22:23;5.90;;;5.33;;
14611;SDS011;7392;52.078;11.650;2023-02-12T01:24:52;5.27;;;4.87;;
14611;SDS011;7392;52.078;11.650;2023-02-12T01:27:20;6.20;;;5.63;;
14611;SDS011;7392;52.078;11.650;2023-02-12T01:29:47;6.10;;;5.60;;
14611;SDS011;7392;52.078;11.650;2023-02-12T01:32:15;6.23;;;5.67;;
14611;SDS011;7392;52.078;11.650;2023-02-12T01:34:43;5.87;;;5.37;;
14611;SDS011;7392;52.078;11.650;2023-02-12T01:37:10;6.37;;;5.77;;
14611;SDS011;7392;52.078;11.650;2023-02-12T01:39:38;6.37;;;5.80;;
14611;SDS011;7392;52.078;11.650;2023-02-12T01:42:09;7.27;;;6.57;;
14611;SDS011;7392;52.078;11.650;2023-02-12T01:44:42;7.07;;;6.43;;
14611;SDS011;7392;52.078;11.650;2023-02-12T01:47:13;6.47;;;5.90;;
14611;SDS011;7392;52.078;11.650;2023-02-12T01:49:44;6.70;;;6.10;;
14611;SDS011;7392;52.078;11.650;2023-02-12T01:52:15;5.93;;;5.43;;
14611;SDS011;7392;52.078;11.650;2023-02-12T01:54:46;6.10;;;5.60;;
14611;SDS011;7392;52.078;11.650;2023-02-12T01:57:17;6.17;;;5.67;;
14611;SDS011;7392;52.078;11.650;2023-02-12T01:59:46;6.67;;;6.13;;
14611;SDS011;7392;52.078;11.650;2023-02-12T02:02:16;6.57;;;6.00;;
14611;SDS011;7392;52.078;11.650;2023-02-12T02:04:47;5.67;;;5.17;;
14611;SDS011;7392;52.078;11.650;2023-02-12T02:07:18;5.90;;;5.40;;
14611;SDS011;7392;52.078;11.650;2023-02-12T02:09:46;5.67;;;5.17;;
14611;SDS011;7392;52.078;11.650;2023-02-12T02:12:14;5.73;;;5.23;;
14611;SDS011;7392;52.078;11.650;2023-02-12T02:15:01;5.10;;;4.70;;
14611;SDS011;7392;52.078;11.650;2023-02-12T02:17:34;5.80;;;5.23;;
14611;SDS011;7392;52.078;11.650;2023-02-12T02:23:39;4.80;;;4.40;;
14611;SDS011;7392;52.078;11.650;2023-02-12T02:26:27;4.80;;;4.40;;
14611;SDS011;7392;52.078;11.650;2023-02-12T02:29:12;4.93;;;4.53;;
14611;SDS011;7392;52.078;11.650;2023-02-12T02:31:55;5.30;;;4.80;;
14611;SDS011;7392;52.078;11.650;2023-02-12T02:34:32;5.13;;;4.63;;
14611;SDS011;7392;52.078;11.650;2023-02-12T02:37:07;5.77;;;5.27;;
14611;SDS011;7392;52.078;11.650;2023-02-12T02:39:42;5.00;;;4.60;;
14611;SDS011;7392;52.078;11.650;2023-02-12T02:42:16;5.07;;;4.57;;
14611;SDS011;7392;52.078;11.650;2023-02-12T02:44:51;5.00;;;4.60;;
14611;SDS011;7392;52.078;11.650;2023-02-12T02:47:23;5.33;;;4.93;;
14611;SDS011;7392;52.078;11.650;2023-02-12T02:49:58;6.13;;;5.63;;
14611;SDS011;7392;52.078;11.650;2023-02-12T02:52:31;5.73;;;5.23;;
14611;SDS011;7392;52.078;11.650;2023-02-12T02:55:04;4.70;;;4.30;;
14611;SDS011;7392;52.078;11.650;2023-02-12T02:57:35;5.13;;;4.73;;
14611;SDS011;7392;52.078;11.650;2023-02-12T03:00:10;5.37;;;4.90;;
14611;SDS011;7392;52.078;11.650;2023-02-12T03:02:44;4.67;;;4.27;;
14611;SDS011;7392;52.078;11.650;2023-02-12T03:05:18;4.47;;;4.07;;
14611;SDS011;7392;52.078;11.650;2023-02-12T03:07:51;4.97;;;4.57;;
14611;SDS011;7392;52.078;11.650;2023-02-12T03:10:25;4.57;;;4.20;;
14611;SDS011;7392;52.078;11.650;2023-02-12T03:12:56;4.67;;;4.27;;
14611;SDS011;7392;52.078;11.650;2023-02-12T03:15:30;4.77;;;4.37;;
14611;SDS011;7392;52.078;11.650;2023-02-12T03:18:05;4.60;;;4.20;;
14611;SDS011;7392;52.078;11.650;2023-02-12T03:20:39;5.00;;;4.50;;
14611;SDS011;7392;52.078;11.650;2023-02-12T03:23:11;4.33;;;3.97;;
14611;SDS011;7392;52.078;11.650;2023-02-12T03:25:43;4.40;;;4.00;;
14611;SDS011;7392;52.078;11.650;2023-02-12T03:28:20;4.50;;;4.10;;
14611;SDS011;7392;52.078;11.650;2023-02-12T03:30:54;4.37;;;3.97;;
14611;SDS011;7392;52.078;11.650;2023-02-12T03:33:32;4.40;;;4.00;;
14611;SDS011;7392;52.078;11.650;2023-02-12T03:36:09;4.83;;;4.43;;
14611;SDS011;7392;52.078;11.650;2023-02-12T03:38:47;4.03;;;3.73;;
14611;SDS011;7392;52.078;11.650;2023-02-12T03:41:19;3.97;;;3.67;;
14611;SDS011;7392;52.078;11.650;2023-02-12T03:43:52;4.17;;;3.87;;
14611;SDS011;7392;52.078;11.650;2023-02-12T03:46:23;4.00;;;3.70;;
14611;SDS011;7392;52.078;11.650;2023-02-12T03:48:57;5.10;;;4.60;;
14611;SDS011;7392;52.078;11.650;2023-02-12T03:51:28;4.30;;;3.90;;
14611;SDS011;7392;52.078;11.650;2023-02-12T03:54:01;4.00;;;3.60;;
14611;SDS011;7392;52.078;11.650;2023-02-12T03:56:31;4.50;;;4.10;;
14611;SDS011;7392;52.078;11.650;2023-02-12T03:59:03;4.60;;;4.20;;
14611;SDS011;7392;52.078;11.650;2023-02-12T04:01:32;4.30;;;3.90;;
14611;SDS011;7392;52.078;11.650;2023-02-12T04:04:03;4.23;;;3.83;;
14611;SDS011;7392;52.078;11.650;2023-02-12T04:06:32;4.33;;;3.93;;
14611;SDS011;7392;52.078;11.650;2023-02-12T04:09:01;3.97;;;3.67;;
14611;SDS011;7392;52.078;11.650;2023-02-12T04:11:33;3.87;;;3.57;;
14611;SDS011;7392;52.078;11.650;2023-02-12T04:14:12;3.57;;;3.27;;
14611;SDS011;7392;52.078;11.650;2023-02-12T04:16:47;4.00;;;3.60;;
14611;SDS011;7392;52.078;11.650;2023-02-12T04:19:25;3.63;;;3.33;;
14611;SDS011;7392;52.078;11.650;2023-02-12T04:22:03;3.43;;;3.13;;
14611;SDS011;7392;52.078;11.650;2023-02-12T04:24:43;3.40;;;3.10;;
14611;SDS011;7392;52.078;11.650;2023-02-12T04:27:18;3.43;;;3.13;;
14611;SDS011;7392;52.078;11.650;2023-02-12T04:29:52;5.97;;;4.60;;
14611;SDS011;7392;52.078;11.650;2023-02-12T04:32:24;4.00;;;3.70;;
14611;SDS011;7392;52.078;11.650;2023-02-12T04:35:01;5.00;;;4.20;;
14611;SDS011;7392;52.078;11.650;2023-02-12T04:37:32;4.33;;;3.93;;
14611;SDS011;7392;52.078;11.650;2023-02-12T04:40:06;4.70;;;4.20;;
14611;SDS011;7392;52.078;11.650;2023-02-12T04:42:41;4.23;;;3.83;;
14611;SDS011;7392;52.078;11.650;2023-02-12T04:45:10;3.60;;;3.30;;
14611;SDS011;7392;52.078;11.650;2023-02-12T04:47:38;3.70;;;3.40;;
14611;SDS011;7392;52.078;11.650;2023-02-12T04:50:08;4.13;;;3.83;;
14611;SDS011;7392;52.078;11.650;2023-02-12T04:52:36;4.33;;;3.93;;
14611;SDS011;7392;52.078;11.650;2023-02-12T04:55:04;4.47;;;4.07;;
14611;SDS011;7392;52.078;11.650;2023-02-12T04:57:32;4.13;;;3.77;;
14611;SDS011;7392;52.078;11.650;2023-02-12T04:59:59;5.07;;;4.57;;
14611;SDS011;7392;52.078;11.650;2023-02-12T05:02:27;5.83;;;4.83;;
14611;SDS011;7392;52.078;11.650;2023-02-12T05:04:55;6.20;;;5.60;;
14611;SDS011;7392;52.078;11.650;2023-02-12T05:07:24;5.10;;;4.60;;
14611;SDS011;7392;52.078;11.650;2023-02-12T05:09:51;5.30;;;4.80;;
14611;SDS011;7392;52.078;11.650;2023-02-12T05:12:19;5.20;;;4.70;;
14611;SDS011;7392;52.078;11.650;2023-02-12T05:14:47;5.83;;;4.93;;
14611;SDS011;7392;52.078;11.650;2023-02-12T05:17:14;6.47;;;5.43;;
14611;SDS011;7392;52.078;11.650;2023-02-12T05:19:42;5.90;;;5.23;;
14611;SDS011;7392;52.078;11.650;2023-02-12T05:22:10;5.70;;;5.10;;
14611;SDS011;7392;52.078;11.650;2023-02-12T05:24:38;4.93;;;4.43;;
14611;SDS011;7392;52.078;11.650;2023-02-12T05:27:06;5.57;;;4.97;;
14611;SDS011;7392;52.078;11.650;2023-02-12T05:29:35;5.73;;;5.17;;
14611;SDS011;7392;52.078;11.650;2023-02-12T05:32:03;5.00;;;4.50;;
14611;SDS011;7392;52.078;11.650;2023-02-12T05:34:32;5.13;;;4.63;;
14611;SDS011;7392;52.078;11.650;2023-02-12T05:37:00;4.17;;;3.73;;
14611;SDS011;7392;52.078;11.650;2023-02-12T05:39:28;5.67;;;5.07;;
14611;SDS011;7392;52.078;11.650;2023-02-12T05:41:57;4.53;;;4.13;;
14611;SDS011;7392;52.078;11.650;2023-02-12T05:44:25;5.00;;;4.50;;
14611;SDS011;7392;52.078;11.650;2023-02-12T05:46:52;4.83;;;4.33;;
14611;SDS011;7392;52.078;11.650;2023-02-12T05:49:20;5.10;;;4.60;;
14611;SDS011;7392;52.078;11.650;2023-02-12T05:51:48;5.97;;;5.03;;
14611;SDS011;7392;52.078;11.650;2023-02-12T05:54:15;7.07;;;6.20;;
14611;SDS011;7392;52.078;11.650;2023-02-12T05:56:44;6.73;;;6.03;;
14611;SDS011;7392;52.078;11.650;2023-02-12T05:59:15;5.93;;;5.33;;
14611;SDS011;7392;52.078;11.650;2023-02-12T06:01:44;5.67;;;5.07;;
14611;SDS011;7392;52.078;11.650;2023-02-12T06:04:14;5.67;;;5.07;;
14611;SDS011;7392;52.078;11.650;2023-02-12T06:06:43;5.50;;;5.00;;
14611;SDS011;7392;52.078;11.650;2023-02-12T06:09:11;6.13;;;5.33;;
14611;SDS011;7392;52.078;11.650;2023-02-12T06:11:40;5.03;;;4.53;;
14611;SDS011;7392;52.078;11.650;2023-02-12T06:14:10;4.67;;;4.27;;
14611;SDS011;7392;52.078;11.650;2023-02-12T06:16:42;5.23;;;4.73;;
14611;SDS011;7392;52.078;11.650;2023-02-12T06:19:11;5.20;;;4.70;;
14611;SDS011;7392;52.078;11.650;2023-02-12T06:21:38;5.33;;;4.33;;
14611;SDS011;7392;52.078;11.650;2023-02-12T06:24:06;5.13;;;4.63;;
14611;SDS011;7392;52.078;11.650;2023-02-12T06:26:34;6.00;;;5.27;;
14611;SDS011;7392;52.078;11.650;2023-02-12T06:29:02;5.37;;;4.57;;
14611;SDS011;7392;52.078;11.650;2023-02-12T06:31:30;6.20;;;5.27;;
14611;SDS011;7392;52.078;11.650;2023-02-12T06:34:02;6.00;;;5.40;;
14611;SDS011;7392;52.078;11.650;2023-02-12T06:36:32;6.40;;;5.40;;
14611;SDS011;7392;52.078;11.650;2023-02-12T06:39:00;5.43;;;4.93;;
14611;SDS011;7392;52.078;11.650;2023-02-12T06:41:28;5.57;;;5.07;;
14611;SDS011;7392;52.078;11.650;2023-02-12T06:43:56;5.67;;;5.07;;
14611;SDS011;7392;52.078;11.650;2023-02-12T06:46:24;5.77;;;5.27;;
14611;SDS011;7392;52.078;11.650;2023-02-12T06:48:52;6.40;;;5.77;;
14611;SDS011;7392;52.078;11.650;2023-02-12T06:51:23;6.63;;;5.93;;
14611;SDS011;7392;52.078;11.650;2023-02-12T06:53:51;6.10;;;5.50;;
14611;SDS011;7392;52.078;11.650;2023-02-12T06:56:21;5.90;;;5.30;;
14611;SDS011;7392;52.078;11.650;2023-02-12T06:58:51;6.87;;;6.10;;
14611;SDS011;7392;52.078;11.650;2023-02-12T07:01:20;6.50;;;5.80;;
14611;SDS011;7392;52.078;11.650;2023-02-12T07:03:50;7.30;;;6.27;;
14611;SDS011;7392;52.078;11.650;2023-02-12T07:06:20;7.83;;;6.93;;
14611;SDS011;7392;52.078;11.650;2023-02-12T07:08:49;7.60;;;6.27;;
14611;SDS011;7392;52.078;11.650;2023-02-12T07:11:17;7.80;;;6.93;;
14611;SDS011;7392;52.078;11.650;2023-02-12T07:13:49;9.17;;;7.27;;
14611;SDS011;7392;52.078;11.650;2023-02-12T07:16:17;8.13;;;7.30;;
14611;SDS011;7392;52.078;11.650;2023-02-12T07:18:45;8.43;;;6.97;;
14611;SDS011;7392;52.078;11.650;2023-02-12T07:21:13;8.23;;;6.97;;
14611;SDS011;7392;52.078;11.650;2023-02-12T07:23:44;8.83;;;7.80;;
14611;SDS011;7392;52.078;11.650;2023-02-12T07:26:18;7.47;;;6.53;;
14611;SDS011;7392;52.078;11.650;2023-02-12T07:28:47;8.23;;;6.90;;
14611;SDS011;7392;52.078;11.650;2023-02-12T07:31:16;9.80;;;7.27;;
14611;SDS011;7392;52.078;11.650;2023-02-12T07:33:45;7.00;;;6.13;;
14611;SDS011;7392;52.078;11.650;2023-02-12T07:36:14;7.53;;;6.20;;
14611;SDS011;7392;52.078;11.650;2023-02-12T07:38:43;6.03;;;5.43;;
14611;SDS011;7392;52.078;11.650;2023-02-12T07:41:12;6.50;;;5.47;;
14611;SDS011;7392;52.078;11.650;2023-02-12T07:43:43;5.70;;;5.10;;
14611;SDS011;7392;52.078;11.650;2023-02-12T07:46:12;6.07;;;5.43;;
14611;SDS011;7392;52.078;11.650;2023-02-12T07:48:42;6.37;;;5.50;;
14611;SDS011;7392;52.078;11.650;2023-02-12T07:51:11;8.77;;;5.93;;
14611;SDS011;7392;52.078;11.650;2023-02-12T07:53:40;6.73;;;5.50;;
14611;SDS011;7392;52.078;11.650;2023-02-12T07:58:37;7.90;;;6.77;;
14611;SDS011;7392;52.078;11.650;2023-02-12T08:01:15;6.40;;;5.67;;
14611;SDS011;7392;52.078;11.650;2023-02-12T08:03:44;6.43;;;5.67;;
14611;SDS011;7392;52.078;11.650;2023-02-12T08:06:14;10.47;;;6.10;;
14611;SDS011;7392;52.078;11.650;2023-02-12T08:08:44;6.27;;;5.30;;
14611;SDS011;7392;52.078;11.650;2023-02-12T08:11:12;7.73;;;6.17;;
14611;SDS011;7392;52.078;11.650;2023-02-12T08:13:41;6.40;;;5.53;;
14611;SDS011;7392;52.078;11.650;2023-02-12T08:16:10;7.73;;;6.00;;
14611;SDS011;7392;52.078;11.650;2023-02-12T08:18:40;7.33;;;5.80;;
14611;SDS011;7392;52.078;11.650;2023-02-12T08:21:09;7.97;;;5.50;;
14611;SDS011;7392;52.078;11.650;2023-02-12T08:23:38;6.27;;;5.03;;
14611;SDS011;7392;52.078;11.650;2023-02-12T08:26:08;7.63;;;5.60;;
14611;SDS011;7392;52.078;11.650;2023-02-12T08:28:38;6.83;;;5.83;;
14611;SDS011;7392;52.078;11.650;2023-02-12T08:31:07;7.37;;;5.80;;
14611;SDS011;7392;52.078;11.650;2023-02-12T08:33:36;8.50;;;5.27;;
14611;SDS011;7392;52.078;11.650;2023-02-12T08:36:07;6.60;;;5.00;;
14611;SDS011;7392;52.078;11.650;2023-02-12T08:38:37;5.17;;;4.60;;
14611;SDS011;7392;52.078;11.650;2023-02-12T08:41:06;6.23;;;4.70;;
14611;SDS011;7392;52.078;11.650;2023-02-12T08:43:35;6.43;;;4.23;;
14611;SDS011;7392;52.078;11.650;2023-02-12T08:46:04;5.07;;;4.33;;
14611;SDS011;7392;52.078;11.650;2023-02-12T08:48:33;5.07;;;4.10;;
14611;SDS011;7392;52.078;11.650;2023-02-12T08:51:07;5.17;;;4.37;;
14611;SDS011;7392;52.078;11.650;2023-02-12T08:53:36;4.97;;;4.20;;
14611;SDS011;7392;52.078;11.650;2023-02-12T08:56:05;4.50;;;3.77;;
14611;SDS011;7392;52.078;11.650;2023-02-12T08:58:34;4.60;;;4.10;;
14611;SDS011;7392;52.078;11.650;2023-02-12T09:01:03;4.57;;;4.00;;
14611;SDS011;7392;52.078;11.650;2023-02-12T09:03:35;5.07;;;4.10;;
14611;SDS011;7392;52.078;11.650;2023-02-12T09:06:03;4.03;;;3.67;;
14611;SDS011;7392;52.078;11.650;2023-02-12T09:08:33;4.23;;;3.70;;
14611;SDS011;7392;52.078;11.650;2023-02-12T09:11:03;4.60;;;3.30;;
14611;SDS011;7392;52.078;11.650;2023-02-12T09:13:32;3.47;;;3.13;;
14611;SDS011;7392;52.078;11.650;2023-02-12T09:16:00;3.90;;;3.20;;
14611;SDS011;7392;52.078;11.650;2023-02-12T09:18:29;6.37;;;4.00;;
14611;SDS011;7392;52.078;11.650;2023-02-12T09:20:59;5.23;;;4.50;;
14611;SDS011;7392;52.078;11.650;2023-02-12T09:23:29;4.80;;;4.20;;
14611;SDS011;7392;52.078;11.650;2023-02-12T09:25:57;4.30;;;3.87;;
14611;SDS011;7392;52.078;11.650;2023-02-12T09:28:25;4.03;;;3.63;;
14611;SDS011;7392;52.078;11.650;2023-02-12T09:30:52;4.33;;;3.63;;
14611;SDS011;7392;52.078;11.650;2023-02-12T09:33:21;4.10;;;3.67;;
14611;SDS011;7392;52.078;11.650;2023-02-12T09:35:49;3.60;;;3.00;;
14611;SDS011;7392;52.078;11.650;2023-02-12T09:38:17;4.00;;;3.60;;
14611;SDS011;7392;52.078;11.650;2023-02-12T09:40:47;3.40;;;3.10;;
14611;SDS011;7392;52.078;11.650;2023-02-12T09:43:29;3.33;;;3.03;;
14611;SDS011;7392;52.078;11.650;2023-02-12T09:46:01;3.33;;;3.03;;
14611;SDS011;7392;52.078;11.650;2023-02-12T09:48:41;3.93;;;3.30;;
14611;SDS011;7392;52.078;11.650;2023-02-12T09:51:20;3.87;;;3.00;;
14611;SDS011;7392;52.078;11.650;2023-02-12T09:53:49;4.17;;;2.77;;
14611;SDS011;7392;52.078;11.650;2023-02-12T09:56:27;2.93;;;2.63;;
14611;SDS011;7392;52.078;11.650;2023-02-12T09:58:57;3.20;;;2.80;;
14611;SDS011;7392;52.078;11.650;2023-02-12T10:01:28;3.03;;;2.73;;
14611;SDS011;7392;52.078;11.650;2023-02-12T10:03:56;3.80;;;2.90;;
14611;SDS011;7392;52.078;11.650;2023-02-12T10:06:25;3.10;;;2.80;;
14611;SDS011;7392;52.078;11.650;2023-02-12T10:08:58;3.63;;;3.10;;
14611;SDS011;7392;52.078;11.650;2023-02-12T10:11:54;4.17;;;3.67;;
14611;SDS011;7392;52.078;11.650;2023-02-12T10:14:34;3.30;;;3.00;;
14611;SDS011;7392;52.078;11.650;2023-02-12T10:17:18;3.30;;;2.80;;
14611;SDS011;7392;52.078;11.650;2023-02-12T10:19:55;3.23;;;2.77;;
14611;SDS011;7392;52.078;11.650;2023-02-12T10:22:45;3.70;;;3.33;;
14611;SDS011;7392;52.078;11.650;2023-02-12T10:25:23;4.10;;;3.70;;
14611;SDS011;7392;52.078;11.650;2023-02-12T10:27:59;3.07;;;2.80;;
14611;SDS011;7392;52.078;11.650;2023-02-12T10:30:30;3.43;;;3.13;;
14611;SDS011;7392;52.078;11.650;2023-02-12T10:33:10;3.53;;;3.10;;
14611;SDS011;7392;52.078;11.650;2023-02-12T10:35:42;3.30;;;2.90;;
14611;SDS011;7392;52.078;11.650;2023-02-12T10:38:13;3.13;;;2.83;;
14611;SDS011;7392;52.078;11.650;2023-02-12T10:40:45;2.80;;;2.60;;
14611;SDS011;7392;52.078;11.650;2023-02-12T10:43:16;2.93;;;2.63;;
14611;SDS011;7392;52.078;11.650;2023-02-12T10:45:44;3.20;;;2.90;;
14611;SDS011;7392;52.078;11.650;2023-02-12T10:48:13;2.90;;;2.60;;
14611;SDS011;7392;52.078;11.650;2023-02-12T10:53:46;3.20;;;2.87;;
14611;SDS011;7392;52.078;11.650;2023-02-12T10:56:15;2.87;;;2.60;;
14611;SDS011;7392;52.078;11.650;2023-02-12T10:58:51;2.87;;;2.57;;
14611;SDS011;7392;52.078;11.650;2023-02-12T11:01:22;3.17;;;2.70;;
14611;SDS011;7392;52.078;11.650;2023-02-12T11:03:53;2.53;;;2.33;;
14611;SDS011;7392;52.078;11.650;2023-02-12T11:06:21;2.67;;;2.47;;
14611;SDS011;7392;52.078;11.650;2023-02-12T11:08:51;4.27;;;2.93;;
14611;SDS011;7392;52.078;11.650;2023-02-12T11:11:20;3.53;;;3.00;;
14611;SDS011;7392;52.078;11.650;2023-02-12T11:13:57;2.83;;;2.63;;
14611;SDS011;7392;52.078;11.650;2023-02-12T11:16:27;2.73;;;2.47;;
14611;SDS011;7392;52.078;11.650;2023-02-12T11:18:58;2.93;;;2.63;;
14611;SDS011;7392;52.078;11.650;2023-02-12T11:21:31;2.23;;;2.03;;
14611;SDS011;7392;52.078;11.650;2023-02-12T11:26:49;4.03;;;2.30;;
14611;SDS011;7392;52.078;11.650;2023-02-12T11:29:19;2.30;;;2.00;;
14611;SDS011;7392;52.078;11.650;2023-02-12T11:31:59;2.97;;;2.20;;
14611;SDS011;7392;52.078;11.650;2023-02-12T11:34:28;2.40;;;2.20;;
14611;SDS011;7392;52.078;11.650;2023-02-12T11:36:56;2.10;;;1.90;;
14611;SDS011;7392;52.078;11.650;2023-02-12T11:39:25;2.33;;;2.13;;
14611;SDS011;7392;52.078;11.650;2023-02-12T11:41:55;2.80;;;2.10;;
14611;SDS011;7392;52.078;11.650;2023-02-12T11:44:26;2.30;;;2.10;;
14611;SDS011;7392;52.078;11.650;2023-02-12T11:46:56;2.30;;;2.10;;
14611;SDS011;7392;52.078;11.650;2023-02-12T11:49:28;2.20;;;2.00;;
14611;SDS011;7392;52.078;11.650;2023-02-12T11:51:59;2.93;;;2.30;;
14611;SDS011;7392;52.078;11.650;2023-02-12T11:54:29;2.73;;;2.40;;
14611;SDS011;7392;52.078;11.650;2023-02-12T11:57:09;2.50;;;2.30;;
14611;SDS011;7392;52.078;11.650;2023-02-12T12:00:11;3.43;;;3.13;;
14611;SDS011;7392;52.078;11.650;2023-02-12T12:02:52;2.87;;;2.60;;
14611;SDS011;7392;52.078;11.650;2023-02-12T12:05:24;3.30;;;3.00;;
14611;SDS011;7392;52.078;11.650;2023-02-12T12:07:58;2.80;;;2.53;;
14611;SDS011;7392;52.078;11.650;2023-02-12T12:10:33;3.30;;;3.00;;
14611;SDS011;7392;52.078;11.650;2023-02-12T12:13:08;3.07;;;2.60;;
14611;SDS011;7392;52.078;11.650;2023-02-12T12:15:42;2.77;;;2.47;;
14611;SDS011;7392;52.078;11.650;2023-02-12T12:18:30;2.53;;;2.33;;
14611;SDS011;7392;52.078;11.650;2023-02-12T12:21:23;2.60;;;2.40;;
14611;SDS011;7392;52.078;11.650;2023-02-12T12:23:56;2.30;;;2.10;;
14611;SDS011;7392;52.078;11.650;2023-02-12T12:26:27;2.57;;;2.37;;
14611;SDS011;7392;52.078;11.650;2023-02-12T12:29:02;2.83;;;2.50;;
14611;SDS011;7392;52.078;11.650;2023-02-12T12:31:37;2.50;;;2.30;;
14611;SDS011;7392;52.078;11.650;2023-02-12T12:34:09;2.47;;;2.27;;
14611;SDS011;7392;52.078;11.650;2023-02-12T12:36:43;2.47;;;2.27;;
14611;SDS011;7392;52.078;11.650;2023-02-12T12:39:29;2.40;;;2.17;;
14611;SDS011;7392;52.078;11.650;2023-02-12T12:45:07;2.50;;;2.30;;
14611;SDS011;7392;52.078;11.650;2023-02-12T12:47:51;2.93;;;2.40;;
14611;SDS011;7392;52.078;11.650;2023-02-12T12:50:39;2.40;;;2.20;;
14611;SDS011;7392;52.078;11.650;2023-02-12T12:53:23;2.93;;;2.50;;
14611;SDS011;7392;52.078;11.650;2023-02-12T12:56:04;2.97;;;2.67;;
14611;SDS011;7392;52.078;11.650;2023-02-12T12:58:48;4.03;;;3.63;;
14611;SDS011;7392;52.078;11.650;2023-02-12T13:01:35;3.00;;;2.80;;
14611;SDS011;7392;52.078;11.650;2023-02-12T13:04:30;3.40;;;3.10;;
14611;SDS011;7392;52.078;11.650;2023-02-12T13:07:20;2.90;;;2.70;;
14611;SDS011;7392;52.078;11.650;2023-02-12T13:10:05;2.67;;;2.30;;
14611;SDS011;7392;52.078;11.650;2023-02-12T13:12:45;2.90;;;2.70;;
14611;SDS011;7392;52.078;11.650;2023-02-12T13:15:25;3.43;;;3.13;;
14611;SDS011;7392;52.078;11.650;2023-02-12T13:18:02;2.77;;;2.57;;
14611;SDS011;7392;52.078;11.650;2023-02-12T13:20:41;2.50;;;2.30;;
14611;SDS011;7392;52.078;11.650;2023-02-12T13:23:15;2.80;;;2.60;;
14611;SDS011;7392;52.078;11.650;2023-02-12T13:25:55;2.77;;;2.57;;
14611;SDS011;7392;52.078;11.650;2023-02-12T13:28:30;2.70;;;2.30;;
14611;SDS011;7392;52.078;11.650;2023-02-12T13:31:03;2.60;;;2.40;;
14611;SDS011;7392;52.078;11.650;2023-02-12T13:33:56;2.80;;;2.60;;
14611;SDS011;7392;52.078;11.650;2023-02-12T13:36:26;2.40;;;2.20;;
14611;SDS011;7392;52.078;11.650;2023-02-12T13:38:55;2.50;;;2.30;;
14611;SDS011;7392;52.078;11.650;2023-02-12T13:41:27;3.03;;;2.80;;
14611;SDS011;7392;52.078;11.650;2023-02-12T13:43:58;3.17;;;2.70;;
14611;SDS011;7392;52.078;11.650;2023-02-12T13:46:35;2.67;;;2.47;;
14611;SDS011;7392;52.078;11.650;2023-02-12T13:49:16;3.20;;;2.90;;
14611;SDS011;7392;52.078;11.650;2023-02-12T13:51:52;3.67;;;2.73;;
14611;SDS011;7392;52.078;11.650;2023-02-12T13:54:36;3.63;;;3.33;;
14611;SDS011;7392;52.078;11.650;2023-02-12T13:57:14;3.43;;;3.13;;
14611;SDS011;7392;52.078;11.650;2023-02-12T13:59:44;3.23;;;2.93;;
14611;SDS011;7392;52.078;11.650;2023-02-12T14:02:25;3.33;;;3.03;;
14611;SDS011;7392;52.078;11.650;2023-02-12T14:04:56;5.40;;;4.00;;
14611;SDS011;7392;52.078;11.650;2023-02-12T14:07:38;3.70;;;3.40;;
14611;SDS011;7392;52.078;11.650;2023-02-12T14:10:18;3.30;;;3.00;;
14611;SDS011;7392;52.078;11.650;2023-02-12T14:12:48;3.27;;;2.97;;
14611;SDS011;7392;52.078;11.650;2023-02-12T14:15:23;2.77;;;2.57;;
14611;SDS011;7392;52.078;11.650;2023-02-12T14:18:05;4.00;;;3.10;;
14611;SDS011;7392;52.078;11.650;2023-02-12T14:20:49;3.27;;;2.97;;
14611;SDS011;7392;52.078;11.650;2023-02-12T14:27:28;3.57;;;3.10;;
14611;SDS011;7392;52.078;11.650;2023-02-12T14:30:03;3.67;;;3.23;;
14611;SDS011;7392;52.078;11.650;2023-02-12T14:32:54;3.93;;;3.47;;
14611;SDS011;7392;52.078;11.650;2023-02-12T14:35:30;3.93;;;3.53;;
14611;SDS011;7392;52.078;11.650;2023-02-12T14:38:01;4.63;;;4.10;;
14611;SDS011;7392;52.078;11.650;2023-02-12T14:40:37;4.67;;;4.13;;
14611;SDS011;7392;52.078;11.650;2023-02-12T14:43:23;4.77;;;4.13;;
14611;SDS011;7392;52.078;11.650;2023-02-12T14:45:57;5.53;;;4.50;;
14611;SDS011;7392;52.078;11.650;2023-02-12T14:48:39;5.30;;;4.50;;
14611;SDS011;7392;52.078;11.650;2023-02-12T14:51:15;4.93;;;4.43;;
14611;SDS011;7392;52.078;11.650;2023-02-12T14:53:47;5.00;;;4.50;;
14611;SDS011;7392;52.078;11.650;2023-02-12T14:56:18;4.73;;;4.23;;
14611;SDS011;7392;52.078;11.650;2023-02-12T14:58:47;4.73;;;4.13;;
14611;SDS011;7392;52.078;11.650;2023-02-12T15:01:16;4.43;;;4.03;;
14611;SDS011;7392;52.078;11.650;2023-02-12T15:03:53;4.47;;;4.00;;
14611;SDS011;7392;52.078;11.650;2023-02-12T15:06:22;4.47;;;4.03;;
14611;SDS011;7392;52.078;11.650;2023-02-12T15:09:05;5.03;;;4.17;;
14611;SDS011;7392;52.078;11.650;2023-02-12T15:11:37;4.20;;;3.77;;
14611;SDS011;7392;52.078;11.650;2023-02-12T15:14:11;4.53;;;4.07;;
14611;SDS011;7392;52.078;11.650;2023-02-12T15:16:44;4.20;;;3.80;;
14611;SDS011;7392;52.078;11.650;2023-02-12T15:19:25;4.63;;;3.63;;
14611;SDS011;7392;52.078;11.650;2023-02-12T15:22:10;6.07;;;4.50;;
14611;SDS011;7392;52.078;11.650;2023-02-12T15:24:46;5.40;;;4.23;;
14611;SDS011;7392;52.078;11.650;2023-02-12T15:27:13;4.20;;;3.80;;
14611;SDS011;7392;52.078;11.650;2023-02-12T15:29:43;5.33;;;4.33;;
14611;SDS011;7392;52.078;11.650;2023-02-12T15:32:15;4.47;;;3.90;;
14611;SDS011;7392;52.078;11.650;2023-02-12T15:34:48;4.30;;;3.77;;
14611;SDS011;7392;52.078;11.650;2023-02-12T15:37:19;4.40;;;3.93;;